Map

Track Data

SID SEASON NUMBER BASIN SUBBASIN NAME ISO_TIME NATURE LAT LON WMO_WIND WMO_PRES WMO_AGENCY TRACK_TYPE DIST2LAND LANDFALL IFLAG USA_AGENCY USA_ATCF_ID USA_LAT USA_LON USA_RECORD USA_STATUS USA_WIND USA_PRES USA_SSHS USA_R34_NE USA_R34_SE USA_R34_SW USA_R34_NW USA_R50_NE USA_R50_SE USA_R50_SW USA_R50_NW USA_R64_NE USA_R64_SE USA_R64_SW USA_R64_NW USA_POCI USA_ROCI USA_RMW USA_EYE TOKYO_LAT TOKYO_LON TOKYO_GRADE TOKYO_WIND TOKYO_PRES TOKYO_R50_DIR TOKYO_R50_LONG TOKYO_R50_SHORT TOKYO_R30_DIR TOKYO_R30_LONG TOKYO_R30_SHORT TOKYO_LAND CMA_LAT CMA_LON CMA_CAT CMA_WIND CMA_PRES HKO_LAT HKO_LON HKO_CAT HKO_WIND HKO_PRES NEWDELHI_LAT NEWDELHI_LON NEWDELHI_GRADE NEWDELHI_WIND NEWDELHI_PRES NEWDELHI_CI NEWDELHI_DP NEWDELHI_POCI REUNION_LAT REUNION_LON REUNION_TYPE REUNION_WIND REUNION_PRES REUNION_TNUM REUNION_CI REUNION_RMW REUNION_R34_NE REUNION_R34_SE REUNION_R34_SW REUNION_R34_NW REUNION_R50_NE REUNION_R50_SE REUNION_R50_SW REUNION_R50_NW REUNION_R64_NE REUNION_R64_SE REUNION_R64_SW REUNION_R64_NW BOM_LAT BOM_LON BOM_TYPE BOM_WIND BOM_PRES BOM_TNUM BOM_CI BOM_RMW BOM_R34_NE BOM_R34_SE BOM_R34_SW BOM_R34_NW BOM_R50_NE BOM_R50_SE BOM_R50_SW BOM_R50_NW BOM_R64_NE BOM_R64_SE BOM_R64_SW BOM_R64_NW BOM_ROCI BOM_POCI BOM_EYE BOM_POS_METHOD BOM_PRES_METHOD NADI_LAT NADI_LON NADI_CAT NADI_WIND NADI_PRES WELLINGTON_LAT WELLINGTON_LON WELLINGTON_WIND WELLINGTON_PRES DS824_LAT DS824_LON DS824_STAGE DS824_WIND DS824_PRES TD9636_LAT TD9636_LON TD9636_STAGE TD9636_WIND TD9636_PRES TD9635_LAT TD9635_LON TD9635_WIND TD9635_PRES TD9635_ROCI NEUMANN_LAT NEUMANN_LON NEUMANN_CLASS NEUMANN_WIND NEUMANN_PRES MLC_LAT MLC_LON MLC_CLASS MLC_WIND MLC_PRES USA_GUST BOM_GUST BOM_GUST_PER REUNION_GUST REUNION_GUST_PER USA_SEAHGT USA_SEARAD_NE USA_SEARAD_SE USA_SEARAD_SW USA_SEARAD_NW STORM_SPEED STORM_DIR
1909191N18114 1909 32 WP MM NOT_NAMED 1909-07-09 16:00:00 NR 18.2000 114.100 main 361 338 __________O___ -1 18.2000 114.100 2 8 341
1909191N18114 1909 32 WP MM NOT_NAMED 1909-07-09 18:00:00 NR 18.4669 114.006 main 338 314 __________P___ -1 18.4669 114.006 2 8 341
1909191N18114 1909 32 WP MM NOT_NAMED 1909-07-09 21:00:00 NR 18.8547 113.870 main 314 286 __________P___ -1 18.8547 113.870 2 8 341
1909191N18114 1909 32 WP MM NOT_NAMED 1909-07-10 00:00:00 NR 19.2100 113.743 main 286 272 __________P___ -1 19.2100 113.743 2 7 341
1909191N18114 1909 32 WP MM NOT_NAMED 1909-07-10 03:00:00 NR 19.5136 113.632 main 272 264 __________P___ -1 19.5136 113.632 2 6 341
1909191N18114 1909 32 WP MM NOT_NAMED 1909-07-10 04:00:00 NR 19.6000 113.600 main 264 251 __________O___ -1 19.6000 113.600 2 5 342
1909191N18114 1909 32 WP MM NOT_NAMED 1909-07-10 06:00:00 NR 19.7482 113.544 main 251 229 __________P___ -1 19.7482 113.544 2 4 339
1909191N18114 1909 32 WP MM NOT_NAMED 1909-07-10 09:00:00 NR 19.9202 113.472 main 229 205 __________P___ -1 19.9202 113.472 2 3 336
1909191N18114 1909 32 WP MM NOT_NAMED 1909-07-10 12:00:00 NR 20.0512 113.405 main 205 192 __________P___ -1 20.0512 113.405 2 3 331
1909191N18114 1909 32 WP MM NOT_NAMED 1909-07-10 15:00:00 NR 20.1632 113.329 main 192 192 __________P___ -1 20.1632 113.329 2 3 327
1909191N18114 1909 32 WP MM NOT_NAMED 1909-07-10 16:00:00 NR 20.2000 113.300 main 192 178 __________O___ -1 20.2000 113.300 2 3 324
1909191N18114 1909 32 WP MM NOT_NAMED 1909-07-10 18:00:00 NR 20.2785 113.236 main 178 164 __________P___ -1 20.2785 113.236 2 3 319
1909191N18114 1909 32 WP MM NOT_NAMED 1909-07-10 21:00:00 NR 20.3897 113.127 main 164 151 __________P___ -1 20.3897 113.127 2 3 316
1909191N18114 1909 32 WP MM NOT_NAMED 1909-07-11 00:00:00 NR 20.5071 113.001 main 151 137 __________P___ -1 20.5071 113.001 2 4 315
1909191N18114 1909 32 WP MM NOT_NAMED 1909-07-11 03:00:00 NR 20.6461 112.854 main 137 123 __________P___ -1 20.6461 112.854 2 4 315
1909191N18114 1909 32 WP MM NOT_NAMED 1909-07-11 04:00:00 NR 20.7000 112.800 main 123 108 __________O___ -1 20.7000 112.800 7 5 320
1909191N18114 1909 32 WP MM NOT_NAMED 1909-07-11 06:00:00 NR 20.8245 112.692 main 108 80 __________P___ -1 20.8245 112.692 7 5 321
1909191N18114 1909 32 WP MM NOT_NAMED 1909-07-11 09:00:00 NR 21.0364 112.510 main 80 44 __________P___ -1 21.0364 112.510 7 6 321
1909191N18114 1909 32 WP MM NOT_NAMED 1909-07-11 12:00:00 NR 21.2702 112.306 main 44 24 __________P___ -1 21.2702 112.306 7 6 320
1909191N18114 1909 32 WP MM NOT_NAMED 1909-07-11 15:00:00 NR 21.5167 112.080 main 24 15 __________P___ -1 21.5167 112.080 7 7 319
1909191N18114 1909 32 WP MM NOT_NAMED 1909-07-11 16:00:00 NR 21.6000 112.000 main 15 0 __________O___ -1 21.6000 112.000 7 7 317
1909191N18114 1909 32 WP MM NOT_NAMED 1909-07-11 18:00:00 NR 21.7668 111.832 main 0 0 __________P___ -1 21.7668 111.832 7 7 316
1909191N18114 1909 32 WP MM NOT_NAMED 1909-07-11 21:00:00 NR 22.0171 111.565 main 0 0 __________P___ -1 22.0171 111.565 7 7 315
1909191N18114 1909 32 WP MM NOT_NAMED 1909-07-12 00:00:00 NR 22.2671 111.285 main 0 0 __________P___ -1 22.2671 111.285 7 7 313
1909191N18114 1909 32 WP MM NOT_NAMED 1909-07-12 03:00:00 NR 22.5169 110.997 main 0 0 __________P___ -1 22.5169 110.997 7 7 313
1909191N18114 1909 32 WP MM NOT_NAMED 1909-07-12 04:00:00 NR 22.6000 110.900 main 0 __________O___ -1 22.6000 110.900 7 7 314

Digital Typhoon Data and Search

About IBTrACS Database

This database is a web-friendly format of International Best Track Archive for Climate Stewardship (IBTrACS), a global best track data archive curated by NOAA dating back to 1842.

Updated: 2021-12-06